createdAt,value
2019-03-26T00:02:22.794Z,9.80
2019-03-26T00:04:53.742Z,9.81
2019-03-26T00:07:24.837Z,9.63
2019-03-26T00:09:55.958Z,10.03
2019-03-26T00:12:27.563Z,9.79
2019-03-26T00:14:58.715Z,9.73
2019-03-26T00:17:29.866Z,9.76
2019-03-26T00:20:01.074Z,9.27
2019-03-26T00:22:32.205Z,9.43
2019-03-26T00:25:03.079Z,9.17
2019-03-26T00:27:34.078Z,9.12
2019-03-26T00:30:05.481Z,9.28
2019-03-26T00:32:36.591Z,9.24
2019-03-26T00:35:07.655Z,9.28
2019-03-26T00:37:38.946Z,9.27
2019-03-26T00:40:10.489Z,9.40
2019-03-26T00:42:42.667Z,9.15
2019-03-26T00:45:13.590Z,9.03
2019-03-26T00:47:44.667Z,9.09
2019-03-26T00:50:16.090Z,9.44
2019-03-26T00:52:46.999Z,9.45
2019-03-26T00:55:22.971Z,7.74
2019-03-26T00:57:51.127Z,9.64
2019-03-26T01:00:39.785Z,9.58
2019-03-26T01:03:10.715Z,9.57
2019-03-26T01:05:42.037Z,9.47
2019-03-26T01:08:13.076Z,9.49
2019-03-26T01:10:44.004Z,9.50
2019-03-26T01:13:15.251Z,9.59
2019-03-26T01:15:46.342Z,9.63
2019-03-26T01:18:17.384Z,9.56
2019-03-26T01:20:48.549Z,9.57
2019-03-26T01:23:19.745Z,9.57
2019-03-26T01:25:50.670Z,9.58
2019-03-26T01:28:21.646Z,9.72
2019-03-26T01:30:52.782Z,9.79
2019-03-26T01:33:23.635Z,9.64
2019-03-26T01:35:54.494Z,9.73
2019-03-26T01:38:25.695Z,9.62
2019-03-26T01:40:56.547Z,9.72
2019-03-26T01:43:27.725Z,9.66
2019-03-26T01:45:58.897Z,9.49
2019-03-26T01:48:29.863Z,9.62
2019-03-26T01:51:01.067Z,9.60
2019-03-26T01:53:32.002Z,9.70
2019-03-26T01:56:03.177Z,9.64
2019-03-26T01:58:34.384Z,9.67
2019-03-26T02:01:05.350Z,9.65
2019-03-26T02:03:36.198Z,9.60
2019-03-26T02:06:07.161Z,9.80
2019-03-26T02:08:38.439Z,9.69
2019-03-26T02:11:09.546Z,9.75
2019-03-26T02:13:40.831Z,9.38
2019-03-26T02:16:12.022Z,9.32
2019-03-26T02:18:43.074Z,9.38
2019-03-26T02:21:15.213Z,9.29
2019-03-26T02:23:46.056Z,9.03
2019-03-26T02:26:17.319Z,9.28
2019-03-26T02:28:48.462Z,9.26
2019-03-26T02:31:19.285Z,9.22
2019-03-26T02:33:50.206Z,8.96
2019-03-26T02:36:21.159Z,8.95
2019-03-26T02:38:52.000Z,9.02
2019-03-26T02:41:23.271Z,9.14
2019-03-26T02:43:54.517Z,9.07
2019-03-26T02:46:25.672Z,8.83
2019-03-26T02:48:56.803Z,8.76
2019-03-26T02:51:27.988Z,8.73
2019-03-26T02:53:59.206Z,8.58
2019-03-26T02:56:30.458Z,8.55
2019-03-26T02:59:01.407Z,8.51
2019-03-26T03:01:32.921Z,8.12
2019-03-26T03:04:03.921Z,8.02
2019-03-26T03:06:35.053Z,7.95
2019-03-26T03:09:07.700Z,7.86
2019-03-26T03:11:38.848Z,7.95
2019-03-26T03:14:09.784Z,8.01
2019-03-26T03:16:40.877Z,8.06
2019-03-26T03:19:15.647Z,7.74
2019-03-26T03:21:44.812Z,7.72
2019-03-26T03:24:15.967Z,7.89
2019-03-26T03:26:46.847Z,7.54
2019-03-26T03:29:17.737Z,7.68
2019-03-26T03:31:49.758Z,7.51
2019-03-26T03:34:20.628Z,7.48
2019-03-26T03:36:51.755Z,7.46
2019-03-26T03:39:22.958Z,7.44
2019-03-26T03:41:53.910Z,7.46
2019-03-26T03:44:24.954Z,7.60
2019-03-26T03:46:56.858Z,7.35
2019-03-26T03:49:30.633Z,7.17
2019-03-26T03:52:03.745Z,7.35
2019-03-26T03:54:37.580Z,7.36
2019-03-26T03:57:10.154Z,7.44
2019-03-26T03:59:43.633Z,7.00
2019-03-26T04:02:14.505Z,7.09
2019-03-26T04:04:45.606Z,6.89
2019-03-26T04:07:16.899Z,6.89
2019-03-26T04:09:48.131Z,7.23
2019-03-26T04:12:18.987Z,7.07
2019-03-26T04:14:50.448Z,7.17
2019-03-26T04:17:21.534Z,7.07
2019-03-26T04:19:52.416Z,7.01
2019-03-26T04:22:23.572Z,6.97
2019-03-26T04:24:54.684Z,6.97
2019-03-26T04:27:26.593Z,6.80
2019-03-26T04:29:57.643Z,6.88
2019-03-26T04:32:28.485Z,6.76
2019-03-26T04:34:59.596Z,7.05
2019-03-26T04:37:31.926Z,6.80
2019-03-26T04:40:02.894Z,6.81
2019-03-26T04:42:34.171Z,6.80
2019-03-26T04:45:05.536Z,6.92
2019-03-26T04:47:36.569Z,6.76
2019-03-26T04:50:07.911Z,6.88
2019-03-26T04:52:39.120Z,6.76
2019-03-26T04:55:11.447Z,6.88
2019-03-26T04:57:42.368Z,6.71
2019-03-26T05:00:13.821Z,6.96
2019-03-26T05:02:44.785Z,6.84
2019-03-26T05:05:16.839Z,6.61
2019-03-26T05:07:48.076Z,6.73
2019-03-26T05:10:19.266Z,6.75
2019-03-26T05:12:50.536Z,6.87
2019-03-26T05:15:21.649Z,6.70
2019-03-26T05:17:52.769Z,6.75
2019-03-26T05:20:23.960Z,6.59
2019-03-26T05:22:54.801Z,6.63
2019-03-26T05:25:25.996Z,4.50
2019-03-26T05:27:57.227Z,6.60
2019-03-26T05:30:28.315Z,6.71
2019-03-26T05:32:59.125Z,6.79
2019-03-26T05:35:30.257Z,6.71
2019-03-26T05:38:01.254Z,6.79
2019-03-26T05:40:32.284Z,6.83
2019-03-26T05:43:03.482Z,7.03
2019-03-26T05:45:34.710Z,6.76
2019-03-26T05:48:05.668Z,6.72
2019-03-26T05:50:36.819Z,6.92
2019-03-26T05:53:07.890Z,7.22
2019-03-26T05:55:38.868Z,7.10
2019-03-26T05:58:09.930Z,6.98
2019-03-26T06:00:41.124Z,6.94
2019-03-26T06:03:11.959Z,7.06
2019-03-26T06:05:42.959Z,6.95
2019-03-26T06:08:13.954Z,7.09
2019-03-26T06:10:45.194Z,7.16
2019-03-26T06:13:17.304Z,7.41
2019-03-26T06:15:48.251Z,7.41
2019-03-26T06:18:19.334Z,7.20
2019-03-26T06:20:50.585Z,7.62
2019-03-26T06:23:21.482Z,7.53
2019-03-26T06:25:52.454Z,7.60
2019-03-26T06:28:24.727Z,7.87
2019-03-26T06:30:56.647Z,7.64
2019-03-26T06:33:27.625Z,7.81
2019-03-26T06:35:58.576Z,7.64
2019-03-26T06:38:29.856Z,7.58
2019-03-26T06:41:02.014Z,7.87
2019-03-26T06:43:32.838Z,7.62
2019-03-26T06:46:03.782Z,7.62
2019-03-26T06:48:34.965Z,7.74
2019-03-26T06:51:05.950Z,7.70
2019-03-26T06:53:36.834Z,7.46
2019-03-26T06:56:07.956Z,7.88
2019-03-26T06:58:39.075Z,7.68
2019-03-26T07:01:09.951Z,7.65
2019-03-26T07:03:41.172Z,8.00
2019-03-26T07:06:12.127Z,7.76
2019-03-26T07:08:43.026Z,8.06
2019-03-26T07:11:13.902Z,8.10
2019-03-26T07:13:44.780Z,8.09
2019-03-26T07:16:15.895Z,8.03
2019-03-26T07:18:46.962Z,8.21
2019-03-26T07:21:17.937Z,8.23
2019-03-26T07:23:49.294Z,8.07
2019-03-26T07:26:20.751Z,8.18
2019-03-26T07:28:51.786Z,8.14
2019-03-26T07:31:22.977Z,8.38
2019-03-26T07:33:53.988Z,8.23
2019-03-26T07:36:24.910Z,8.38
2019-03-26T07:38:56.038Z,8.23
2019-03-26T07:41:26.889Z,8.43
2019-03-26T07:43:57.860Z,8.27
2019-03-26T07:46:29.113Z,8.63
2019-03-26T07:48:59.942Z,8.52
2019-03-26T07:51:31.233Z,8.29
2019-03-26T07:54:02.471Z,8.25
2019-03-26T07:56:33.356Z,8.41
2019-03-26T07:59:04.477Z,8.70
2019-03-26T08:01:35.709Z,9.07
2019-03-26T08:04:06.989Z,8.45
2019-03-26T08:06:37.880Z,8.79
2019-03-26T08:09:09.232Z,8.86
2019-03-26T08:11:40.144Z,8.94
2019-03-26T08:14:11.097Z,8.88
2019-03-26T08:16:41.963Z,9.26
2019-03-26T08:19:12.996Z,9.16
2019-03-26T08:21:44.139Z,8.93
2019-03-26T08:24:15.208Z,9.34
2019-03-26T08:26:46.230Z,9.15
2019-03-26T08:29:17.207Z,8.82
2019-03-26T08:31:48.047Z,8.94
2019-03-26T08:34:18.944Z,9.32
2019-03-26T08:36:50.299Z,9.00
2019-03-26T08:39:21.334Z,9.06
2019-03-26T08:41:52.191Z,9.22
2019-03-26T08:44:23.364Z,9.13
2019-03-26T08:46:54.206Z,9.38
2019-03-26T08:49:30.608Z,9.54
2019-03-26T08:51:57.753Z,9.33
2019-03-26T08:54:29.109Z,9.52
2019-03-26T08:57:00.636Z,9.32
2019-03-26T08:59:31.770Z,9.46
2019-03-26T09:02:02.592Z,9.44
2019-03-26T09:04:33.793Z,9.42
2019-03-26T09:07:04.983Z,9.42
2019-03-26T09:09:35.869Z,9.57
2019-03-26T09:12:07.129Z,9.43
2019-03-26T09:14:38.382Z,9.23
2019-03-26T09:17:09.516Z,10.02
2019-03-26T09:19:40.583Z,9.55
2019-03-26T09:22:11.523Z,9.30
2019-03-26T09:24:42.774Z,9.73
2019-03-26T09:27:13.679Z,9.91
2019-03-26T09:29:44.552Z,9.43
2019-03-26T09:32:15.736Z,9.72
2019-03-26T09:34:46.924Z,9.36
2019-03-26T09:37:17.795Z,9.60
2019-03-26T09:39:48.924Z,9.85
2019-03-26T09:42:20.236Z,9.63
2019-03-26T09:44:51.102Z,9.83
2019-03-26T09:47:22.371Z,9.69
2019-03-26T09:49:53.656Z,9.71
2019-03-26T09:52:24.517Z,9.43
2019-03-26T09:54:55.456Z,9.38
2019-03-26T09:57:26.506Z,9.71
2019-03-26T09:59:57.364Z,9.62
2019-03-26T10:02:28.338Z,9.72
2019-03-26T10:04:59.514Z,9.90
2019-03-26T10:07:30.651Z,9.88
2019-03-26T10:10:01.583Z,10.07
2019-03-26T10:12:33.239Z,10.04
2019-03-26T10:15:04.704Z,9.69
2019-03-26T10:17:35.573Z,10.03
2019-03-26T10:20:07.164Z,9.98
2019-03-26T10:22:38.328Z,10.22
2019-03-26T10:25:11.348Z,10.03
2019-03-26T10:27:42.488Z,10.25
2019-03-26T10:30:15.319Z,10.14
2019-03-26T10:32:46.412Z,10.39
2019-03-26T10:35:17.671Z,10.65
2019-03-26T10:37:48.658Z,10.34
2019-03-26T10:40:31.593Z,9.91
2019-03-26T10:43:02.815Z,9.77
2019-03-26T10:45:33.749Z,10.04
2019-03-26T10:48:05.154Z,10.14
2019-03-26T10:50:36.356Z,10.12
2019-03-26T10:53:07.378Z,10.12
2019-03-26T10:55:38.592Z,9.96
2019-03-26T10:58:09.476Z,10.25
2019-03-26T11:00:40.640Z,9.85
2019-03-26T11:03:11.602Z,10.36
2019-03-26T11:05:42.447Z,10.03
2019-03-26T11:08:13.328Z,10.15
2019-03-26T11:10:44.647Z,9.95
2019-03-26T11:13:15.606Z,9.92
2019-03-26T11:15:46.562Z,10.08
2019-03-26T11:18:17.830Z,10.06
2019-03-26T11:21:01.697Z,10.24
2019-03-26T11:23:21.859Z,10.53
2019-03-26T11:25:53.051Z,10.27
2019-03-26T11:28:24.134Z,10.02
2019-03-26T11:30:55.396Z,10.03
2019-03-26T11:33:26.423Z,10.12
2019-03-26T11:35:57.309Z,10.04
2019-03-26T11:38:28.254Z,10.09
2019-03-26T11:41:02.523Z,9.67
2019-03-26T11:43:36.032Z,10.01
2019-03-26T11:46:07.454Z,9.85
2019-03-26T11:48:38.904Z,10.33
2019-03-26T11:51:09.985Z,9.80
2019-03-26T11:53:41.387Z,9.87
2019-03-26T11:56:12.661Z,10.19
2019-03-26T11:58:43.698Z,9.78
2019-03-26T12:01:14.813Z,10.12
2019-03-26T12:03:45.747Z,10.25
2019-03-26T12:06:16.901Z,10.12
2019-03-26T12:08:47.865Z,10.00
2019-03-26T12:11:18.705Z,9.88
2019-03-26T12:13:49.675Z,9.81
2019-03-26T12:16:20.964Z,9.59
2019-03-26T12:18:51.930Z,9.73
2019-03-26T12:21:22.951Z,9.75
2019-03-26T12:23:54.116Z,9.56
2019-03-26T12:26:24.968Z,8.96
2019-03-26T12:28:56.991Z,9.03
2019-03-26T12:31:28.089Z,8.88
2019-03-26T12:33:59.229Z,8.90
2019-03-26T12:36:39.722Z,8.94
2019-03-26T12:39:02.941Z,9.09
2019-03-26T12:41:34.487Z,8.92
2019-03-26T12:44:05.423Z,8.89
2019-03-26T12:46:36.297Z,8.96
2019-03-26T12:49:07.207Z,8.83
2019-03-26T12:51:39.381Z,8.83
2019-03-26T12:54:10.496Z,8.92
2019-03-26T12:56:41.524Z,9.07
2019-03-26T12:59:12.684Z,9.28
2019-03-26T13:01:43.785Z,9.40
2019-03-26T13:04:16.865Z,9.33
2019-03-26T13:06:47.547Z,9.47
2019-03-26T13:09:18.436Z,9.47
2019-03-26T13:11:49.695Z,9.56
2019-03-26T13:14:20.586Z,9.57
2019-03-26T13:16:51.597Z,9.80
2019-03-26T13:19:22.853Z,9.94
2019-03-26T13:21:54.033Z,9.99
2019-03-26T13:24:24.919Z,10.12
2019-03-26T13:26:56.212Z,10.21
2019-03-26T13:29:27.386Z,10.33
2019-03-26T13:31:58.373Z,10.40
2019-03-26T13:34:29.536Z,10.38
2019-03-26T13:37:00.568Z,10.17
2019-03-26T13:39:31.936Z,10.09
2019-03-26T13:42:03.045Z,10.17
2019-03-26T13:44:33.949Z,10.13
2019-03-26T13:47:05.185Z,10.05
2019-03-26T13:49:36.347Z,10.25
2019-03-26T13:52:07.203Z,10.41
2019-03-26T13:54:38.362Z,10.59
2019-03-26T13:57:09.612Z,10.80
2019-03-26T13:59:40.526Z,10.97
2019-03-26T14:02:11.687Z,10.88
2019-03-26T14:04:42.841Z,11.08
2019-03-26T14:07:13.834Z,11.58
2019-03-26T14:09:44.812Z,11.55
2019-03-26T14:12:17.079Z,11.91
2019-03-26T14:14:47.920Z,11.89
2019-03-26T14:17:18.941Z,11.92
2019-03-26T14:19:50.303Z,11.84
2019-03-26T14:22:21.228Z,12.19
2019-03-26T14:24:52.098Z,12.23
2019-03-26T14:27:23.274Z,12.31
2019-03-26T14:29:54.696Z,12.56
2019-03-26T14:32:25.599Z,12.43
2019-03-26T14:34:56.812Z,12.49
2019-03-26T14:37:29.700Z,12.65
2019-03-26T14:40:00.602Z,12.51
2019-03-26T14:42:31.741Z,12.54
2019-03-26T14:45:02.613Z,12.81
2019-03-26T14:47:33.774Z,13.06
2019-03-26T14:50:05.171Z,13.29
2019-03-26T14:52:36.018Z,13.30
2019-03-26T14:55:08.102Z,13.07
2019-03-26T14:57:39.388Z,12.92
2019-03-26T15:00:10.910Z,13.12
2019-03-26T15:02:43.594Z,13.12
2019-03-26T15:05:15.204Z,13.00
2019-03-26T15:07:46.139Z,12.45
2019-03-26T15:10:17.305Z,12.29
2019-03-26T15:12:48.518Z,10.64
2019-03-26T15:15:19.735Z,12.18
2019-03-26T15:17:51.088Z,11.99
2019-03-26T15:20:21.944Z,11.98
2019-03-26T15:22:53.055Z,12.06
2019-03-26T15:25:23.976Z,12.16
2019-03-26T15:27:54.845Z,12.20
2019-03-26T15:30:25.696Z,12.09
2019-03-26T15:32:58.041Z,12.16
2019-03-26T15:35:28.978Z,12.17
2019-03-26T15:37:59.890Z,12.32
2019-03-26T15:40:31.133Z,12.07
2019-03-26T15:43:02.131Z,12.25
2019-03-26T15:45:34.269Z,12.00
2019-03-26T15:48:05.294Z,11.59
2019-03-26T15:50:40.849Z,11.32
2019-03-26T15:53:12.007Z,11.35
2019-03-26T15:55:42.982Z,11.51
2019-03-26T15:58:13.866Z,11.39
2019-03-26T16:00:45.811Z,11.79
2019-03-26T16:03:16.964Z,11.39
2019-03-26T16:05:47.892Z,11.20
2019-03-26T16:08:19.167Z,11.41
2019-03-26T16:10:50.386Z,11.62
2019-03-26T16:13:21.417Z,11.24
2019-03-26T16:15:52.635Z,11.43
2019-03-26T16:18:23.832Z,11.27
2019-03-26T16:20:54.707Z,11.15
2019-03-26T16:23:25.747Z,11.06
2019-03-26T16:25:56.950Z,10.94
2019-03-26T16:28:27.817Z,10.50
2019-03-26T16:30:58.720Z,10.36
2019-03-26T16:33:29.727Z,10.31
2019-03-26T16:36:00.614Z,10.32
2019-03-26T16:38:31.674Z,10.29
2019-03-26T16:41:02.890Z,9.98
2019-03-26T16:43:33.940Z,9.88
2019-03-26T16:46:04.902Z,9.88
2019-03-26T16:48:36.215Z,9.94
2019-03-26T16:51:07.158Z,9.89
2019-03-26T16:53:38.534Z,9.93
2019-03-26T16:56:09.487Z,10.01
2019-03-26T16:58:40.825Z,9.75
2019-03-26T17:01:12.066Z,9.67
2019-03-26T17:03:43.222Z,9.65
2019-03-26T17:06:14.143Z,9.83
2019-03-26T17:08:45.519Z,9.85
2019-03-26T17:11:16.597Z,9.68
2019-03-26T17:13:47.580Z,9.53
2019-03-26T17:16:18.855Z,9.65
2019-03-26T17:18:50.094Z,9.55
2019-03-26T17:21:21.123Z,9.86
2019-03-26T17:23:52.166Z,9.85
2019-03-26T17:26:23.497Z,9.71
2019-03-26T17:28:54.737Z,9.70
2019-03-26T17:31:25.982Z,9.80
2019-03-26T17:33:56.889Z,9.84
2019-03-26T17:36:28.023Z,9.44
2019-03-26T17:38:59.325Z,9.56
2019-03-26T17:41:30.591Z,9.54
2019-03-26T17:44:02.643Z,9.45
2019-03-26T17:46:33.830Z,9.52
2019-03-26T17:49:04.782Z,9.55
2019-03-26T17:51:35.774Z,9.44
2019-03-26T17:54:06.767Z,9.58
2019-03-26T17:56:38.164Z,9.68
2019-03-26T17:59:09.395Z,9.47
2019-03-26T18:01:40.501Z,9.32
2019-03-26T18:04:11.426Z,9.31
2019-03-26T18:06:42.398Z,9.31
2019-03-26T18:09:13.533Z,9.37
2019-03-26T18:11:44.627Z,9.34
2019-03-26T18:14:15.870Z,9.01
2019-03-26T18:16:46.833Z,9.15
2019-03-26T18:19:17.854Z,9.04
2019-03-26T18:21:51.880Z,9.33
2019-03-26T18:24:22.184Z,9.09
2019-03-26T18:26:53.235Z,8.93
2019-03-26T18:29:24.189Z,8.94
2019-03-26T18:31:55.378Z,9.11
2019-03-26T18:34:26.260Z,9.11
2019-03-26T18:36:57.580Z,9.07
2019-03-26T18:39:29.016Z,8.97
2019-03-26T18:41:59.859Z,8.98
2019-03-26T18:44:31.086Z,8.77
2019-03-26T18:47:02.157Z,8.82
2019-03-26T18:49:33.269Z,8.41
2019-03-26T18:52:04.245Z,8.21
2019-03-26T18:54:35.468Z,8.33
2019-03-26T18:57:06.724Z,8.17
2019-03-26T18:59:37.905Z,8.18
2019-03-26T19:02:08.951Z,8.34
2019-03-26T19:04:40.215Z,8.33
2019-03-26T19:07:12.463Z,8.32
2019-03-26T19:09:43.610Z,7.97
2019-03-26T19:12:14.581Z,8.22
2019-03-26T19:14:47.317Z,8.18
2019-03-26T19:17:18.348Z,8.10
2019-03-26T19:19:49.315Z,8.11
2019-03-26T19:22:20.729Z,7.86
2019-03-26T19:24:52.055Z,7.98
2019-03-26T19:27:22.982Z,8.03
2019-03-26T19:29:54.689Z,8.02
2019-03-26T19:32:25.697Z,8.09
2019-03-26T19:34:56.710Z,8.04
2019-03-26T19:37:27.687Z,7.67
2019-03-26T19:39:58.643Z,7.80
2019-03-26T19:42:30.054Z,7.84
2019-03-26T19:45:01.184Z,7.94
2019-03-26T19:47:32.122Z,7.84
2019-03-26T19:50:03.138Z,7.84
2019-03-26T19:52:34.301Z,7.88
2019-03-26T19:55:05.350Z,7.97
2019-03-26T19:57:36.609Z,7.60
2019-03-26T20:00:09.816Z,7.77
2019-03-26T20:02:41.960Z,7.88
2019-03-26T20:05:13.090Z,7.81
2019-03-26T20:07:43.909Z,7.93
2019-03-26T20:10:15.492Z,7.49
2019-03-26T20:12:46.697Z,7.67
2019-03-26T20:15:18.412Z,7.61
2019-03-26T20:17:49.709Z,7.40
2019-03-26T20:20:22.507Z,6.99
2019-03-26T20:22:54.493Z,7.29
2019-03-26T20:25:26.506Z,7.30
2019-03-26T20:27:57.800Z,7.01
2019-03-26T20:30:28.960Z,7.23
2019-03-26T20:32:59.974Z,6.93
2019-03-26T20:35:31.028Z,7.02
2019-03-26T20:38:02.103Z,7.01
2019-03-26T20:40:33.131Z,6.81
2019-03-26T20:43:04.049Z,6.73
2019-03-26T20:45:35.104Z,6.86
2019-03-26T20:48:06.513Z,6.63
2019-03-26T20:50:37.334Z,6.65
2019-03-26T20:53:08.530Z,6.57
2019-03-26T20:55:39.614Z,6.56
2019-03-26T20:58:10.611Z,6.50
2019-03-26T21:00:42.978Z,6.47
2019-03-26T21:03:14.178Z,6.37
2019-03-26T21:05:45.144Z,6.27
2019-03-26T21:08:16.060Z,6.46
2019-03-26T21:10:46.917Z,6.35
2019-03-26T21:13:17.877Z,6.48
2019-03-26T21:15:56.973Z,6.60
2019-03-26T21:18:21.750Z,6.62
2019-03-26T21:20:52.937Z,6.34
2019-03-26T21:23:24.125Z,6.44
2019-03-26T21:25:55.197Z,6.51
2019-03-26T21:28:26.059Z,6.51
2019-03-26T21:30:57.210Z,6.58
2019-03-26T21:33:28.297Z,6.60
2019-03-26T21:35:59.096Z,6.54
2019-03-26T21:38:30.049Z,6.67
2019-03-26T21:41:00.862Z,6.61
2019-03-26T21:43:32.146Z,6.54
2019-03-26T21:46:03.216Z,6.56
2019-03-26T21:48:34.082Z,6.73
2019-03-26T21:51:05.243Z,6.75
2019-03-26T21:53:36.362Z,6.77
2019-03-26T21:56:07.289Z,6.83
2019-03-26T21:58:38.665Z,6.82
2019-03-26T22:01:09.898Z,6.52
2019-03-26T22:03:40.807Z,6.64
2019-03-26T22:06:11.899Z,6.98
2019-03-26T22:08:42.924Z,6.80
2019-03-26T22:11:13.746Z,6.93
2019-03-26T22:13:45.011Z,6.84
2019-03-26T22:16:15.869Z,6.81
2019-03-26T22:18:47.014Z,6.85
2019-03-26T22:21:18.286Z,6.93
2019-03-26T22:23:49.255Z,6.77
2019-03-26T22:26:20.381Z,6.82
2019-03-26T22:28:51.572Z,7.04
2019-03-26T22:31:22.538Z,6.92
2019-03-26T22:33:53.597Z,6.81
2019-03-26T22:36:24.552Z,6.67
2019-03-26T22:38:55.358Z,6.72
2019-03-26T22:41:26.348Z,6.82
2019-03-26T22:43:58.519Z,6.56
2019-03-26T22:46:29.597Z,6.77
2019-03-26T22:49:00.514Z,6.76
2019-03-26T22:51:31.693Z,6.63
2019-03-26T22:54:02.914Z,6.79
2019-03-26T22:56:33.831Z,6.87
2019-03-26T22:59:05.009Z,6.83
2019-03-26T23:01:35.850Z,6.69
2019-03-26T23:04:06.825Z,6.75
2019-03-26T23:06:38.025Z,6.76
2019-03-26T23:09:09.060Z,6.53
2019-03-26T23:11:40.006Z,6.41
2019-03-26T23:14:10.953Z,6.61
2019-03-26T23:16:42.262Z,6.69
2019-03-26T23:19:13.569Z,6.70
2019-03-26T23:21:44.711Z,6.72
2019-03-26T23:24:15.646Z,6.52
2019-03-26T23:26:46.827Z,6.59
2019-03-26T23:29:17.860Z,6.52
2019-03-26T23:31:48.825Z,6.28
2019-03-26T23:34:19.796Z,6.43
2019-03-26T23:36:51.036Z,6.42
2019-03-26T23:39:21.857Z,6.31
2019-03-26T23:41:52.727Z,6.39
2019-03-26T23:44:26.006Z,6.37
2019-03-26T23:46:56.855Z,6.34
2019-03-26T23:49:28.060Z,6.22
2019-03-26T23:51:58.973Z,6.29
2019-03-26T23:54:30.098Z,6.24
2019-03-26T23:57:01.266Z,6.07
2019-03-26T23:59:32.098Z,6.09
